createdAt,value
2022-08-07T00:02:40.416Z,99928.59
2022-08-07T00:05:05.751Z,99930.06
2022-08-07T00:07:40.869Z,99924.81
2022-08-07T00:10:27.256Z,99932.66
2022-08-07T00:13:09.661Z,99929.25
2022-08-07T00:15:53.016Z,99923.84
2022-08-07T00:18:27.989Z,99928.00
2022-08-07T00:21:03.318Z,99919.78
2022-08-07T00:23:41.867Z,99917.78
2022-08-07T00:26:31.180Z,99919.94
2022-08-07T00:29:01.956Z,99919.59
2022-08-07T00:31:38.045Z,99914.34
2022-08-07T00:34:11.137Z,99922.47
2022-08-07T00:36:43.012Z,99916.16
2022-08-07T00:39:16.593Z,99913.13
2022-08-07T00:41:53.458Z,99911.03
2022-08-07T00:44:29.794Z,99917.09
2022-08-07T00:46:59.647Z,99910.88
2022-08-07T00:50:17.167Z,99914.38
2022-08-07T00:52:20.159Z,99913.03
2022-08-07T00:54:53.722Z,99911.94
2022-08-07T00:57:25.289Z,99905.50
2022-08-07T00:59:55.324Z,99910.31
2022-08-07T01:02:28.609Z,99912.06
2022-08-07T01:05:00.076Z,99911.59
2022-08-07T01:07:31.101Z,99903.50
2022-08-07T01:10:06.897Z,99908.22
2022-08-07T01:12:53.307Z,99908.34
2022-08-07T01:16:01.320Z,99907.66
2022-08-07T01:18:17.129Z,99906.47
2022-08-07T01:20:59.713Z,99900.97
2022-08-07T01:23:38.841Z,99906.56
2022-08-07T01:26:15.822Z,99900.38
2022-08-07T01:28:50.635Z,99903.66
2022-08-07T01:31:41.674Z,99906.59
2022-08-07T01:34:15.142Z,99906.69
2022-08-07T01:36:45.659Z,99908.69
2022-08-07T01:39:41.008Z,99903.78
2022-08-07T01:42:57.422Z,99907.63
2022-08-07T01:45:36.284Z,99903.75
2022-08-07T01:48:18.253Z,99900.97
2022-08-07T01:50:59.966Z,99896.63
2022-08-07T01:54:12.172Z,99901.66
2022-08-07T01:56:54.326Z,99900.94
2022-08-07T01:59:31.561Z,99901.63
2022-08-07T02:02:10.592Z,99907.38
2022-08-07T02:04:56.335Z,99910.13
2022-08-07T02:07:50.007Z,99912.75
2022-08-07T02:10:28.067Z,99912.28
2022-08-07T02:13:02.895Z,99904.53
2022-08-07T02:15:44.229Z,99910.75
2022-08-07T02:18:15.157Z,99907.34
2022-08-07T02:20:52.057Z,99912.22
2022-08-07T02:23:29.672Z,99908.47
2022-08-07T02:26:31.509Z,99911.66
2022-08-07T02:29:00.022Z,99915.84
2022-08-07T02:31:32.739Z,99910.84
2022-08-07T02:34:11.146Z,99912.47
2022-08-07T02:36:47.850Z,99918.78
2022-08-07T02:39:43.754Z,99908.56
2022-08-07T02:42:16.370Z,99912.97
2022-08-07T02:44:54.150Z,99904.81
2022-08-07T02:47:27.876Z,99912.47
2022-08-07T02:50:11.638Z,99906.72
2022-08-07T02:52:49.009Z,99902.25
2022-08-07T02:55:28.454Z,99906.03
2022-08-07T02:58:21.494Z,99900.59
2022-08-07T03:00:57.528Z,99908.63
2022-08-07T03:03:49.930Z,99904.06
2022-08-07T03:06:33.103Z,99907.91
2022-08-07T03:09:07.557Z,99897.44
2022-08-07T03:11:51.655Z,99900.06
2022-08-07T03:14:23.886Z,99902.66
2022-08-07T03:16:55.800Z,99893.53
2022-08-07T03:19:29.080Z,99896.75
2022-08-07T03:22:18.980Z,99897.53
2022-08-07T03:24:49.813Z,99902.22
2022-08-07T03:27:30.540Z,99894.97
2022-08-07T03:30:03.735Z,99894.25
2022-08-07T03:32:58.925Z,99894.63
2022-08-07T03:35:44.045Z,99892.25
2022-08-07T03:38:29.380Z,99892.47
2022-08-07T03:41:02.173Z,99895.00
2022-08-07T03:43:36.051Z,99887.97
2022-08-07T03:46:18.300Z,99887.97
2022-08-07T03:49:02.663Z,99890.75
2022-08-07T03:51:47.146Z,99883.88
2022-08-07T03:54:36.042Z,99887.25
2022-08-07T03:58:34.862Z,99886.34
2022-08-07T04:00:04.212Z,99888.88
2022-08-07T04:02:49.309Z,99892.78
2022-08-07T04:05:40.526Z,99897.75
2022-08-07T04:08:22.086Z,99899.19
2022-08-07T04:12:25.002Z,99891.41
2022-08-07T04:14:10.407Z,99895.16
2022-08-07T04:16:40.434Z,99900.09
2022-08-07T04:19:34.123Z,99902.13
2022-08-07T04:22:27.437Z,99892.63
2022-08-07T04:25:01.976Z,99897.19
2022-08-07T04:27:44.052Z,99899.34
2022-08-07T04:30:21.500Z,99894.09
2022-08-07T04:33:20.994Z,99894.19
2022-08-07T04:35:54.794Z,99889.13
2022-08-07T04:38:29.821Z,99889.78
2022-08-07T04:41:01.689Z,99891.06
2022-08-07T04:44:12.192Z,99890.25
2022-08-07T04:47:23.463Z,99887.31
2022-08-07T04:50:13.618Z,99894.19
2022-08-07T04:53:16.617Z,99894.19
2022-08-07T04:58:09.597Z,99894.78
2022-08-07T05:00:10.859Z,99899.72
2022-08-07T05:02:16.985Z,99904.66
2022-08-07T05:05:12.018Z,99890.53
2022-08-07T05:08:04.246Z,99896.75
2022-08-07T05:10:43.091Z,99896.28
2022-08-07T05:14:55.448Z,99891.72
2022-08-07T05:16:20.262Z,99896.66
2022-08-07T05:18:56.223Z,99897.41
2022-08-07T05:22:00.767Z,99901.50
2022-08-07T05:24:24.664Z,99903.03
2022-08-07T05:27:02.989Z,99904.47
2022-08-07T05:29:51.142Z,99901.22
2022-08-07T05:32:26.651Z,99895.41
2022-08-07T05:34:58.410Z,99903.63
2022-08-07T05:37:28.529Z,99894.88
2022-08-07T05:40:18.743Z,99904.72
2022-08-07T05:42:55.916Z,99903.00
2022-08-07T05:45:46.764Z,99898.00
2022-08-07T05:48:26.500Z,99894.00
2022-08-07T05:50:59.729Z,99903.22
2022-08-07T05:54:13.571Z,99896.22
2022-08-07T05:56:29.906Z,99896.72
2022-08-07T05:59:03.539Z,99901.28
2022-08-07T06:01:40.371Z,99894.53
2022-08-07T06:04:11.447Z,99894.28
2022-08-07T06:06:47.770Z,99895.25
2022-08-07T06:10:04.400Z,99890.06
2022-08-07T06:12:16.860Z,99886.66
2022-08-07T06:14:51.342Z,99893.44
2022-08-07T06:17:23.471Z,99886.19
2022-08-07T06:20:04.744Z,99885.91
2022-08-07T06:22:40.248Z,99887.50
2022-08-07T06:25:23.889Z,99883.69
2022-08-07T06:28:04.879Z,99879.31
2022-08-07T06:30:36.003Z,99879.25
2022-08-07T06:33:17.867Z,99876.50
2022-08-07T06:36:13.533Z,99877.25
2022-08-07T06:38:59.352Z,99875.03
2022-08-07T06:42:02.567Z,99876.34
2022-08-07T06:44:50.946Z,99883.38
2022-08-07T06:47:21.352Z,99870.09
2022-08-07T06:49:58.572Z,99875.97
2022-08-07T06:52:39.094Z,99880.53
2022-08-07T06:55:33.159Z,99877.44
2022-08-07T06:58:13.607Z,99868.94
2022-08-07T07:00:58.730Z,99863.72
2022-08-07T07:03:47.978Z,99870.66
2022-08-07T07:06:23.969Z,99870.25
2022-08-07T07:08:56.852Z,99873.63
2022-08-07T07:12:10.750Z,99862.63
2022-08-07T07:14:22.055Z,99869.53
2022-08-07T07:16:56.535Z,99869.84
2022-08-07T07:19:57.688Z,99862.09
2022-08-07T07:22:36.622Z,99856.50
2022-08-07T07:26:35.115Z,99856.38
2022-08-07T07:28:29.960Z,99849.13
2022-08-07T07:31:13.546Z,99848.66
2022-08-07T07:33:56.432Z,99849.00
2022-08-07T07:36:32.266Z,99849.06
2022-08-07T07:39:06.436Z,99849.38
2022-08-07T07:42:02.316Z,99842.38
2022-08-07T07:44:31.615Z,99844.31
2022-08-07T07:47:13.994Z,99841.66
2022-08-07T07:50:35.670Z,99843.03
2022-08-07T07:52:47.165Z,99834.34
2022-08-07T07:55:21.405Z,99830.03
2022-08-07T07:57:58.151Z,99830.00
2022-08-07T08:00:31.489Z,99829.47
2022-08-07T08:03:09.402Z,99832.22
2022-08-07T08:05:55.156Z,99836.00
2022-08-07T08:08:35.448Z,99836.31
2022-08-07T08:11:16.569Z,99829.50
2022-08-07T08:13:54.052Z,99831.66
2022-08-07T08:16:33.022Z,99832.16
2022-08-07T08:19:18.230Z,99833.75
2022-08-07T08:22:17.964Z,99836.19
2022-08-07T08:25:24.570Z,99833.97
2022-08-07T08:28:07.494Z,99842.88
2022-08-07T08:30:42.872Z,99841.72
2022-08-07T08:33:25.022Z,99845.31
2022-08-07T08:36:00.695Z,99846.09
2022-08-07T08:38:40.596Z,99844.97
2022-08-07T08:41:26.379Z,99838.97
2022-08-07T08:44:29.475Z,99838.09
2022-08-07T08:47:11.389Z,99843.84
2022-08-07T08:50:04.678Z,99829.56
2022-08-07T08:52:53.597Z,99829.91
2022-08-07T08:55:54.482Z,99834.13
2022-08-07T08:58:36.359Z,99834.84
2022-08-07T09:01:18.602Z,99825.59
2022-08-07T09:04:08.537Z,99824.91
2022-08-07T09:06:56.938Z,99824.34
2022-08-07T09:09:56.784Z,99828.34
2022-08-07T09:12:53.185Z,99833.28
2022-08-07T09:16:25.381Z,99818.19
2022-08-07T09:18:58.542Z,99816.50
2022-08-07T09:22:10.319Z,99818.09
2022-08-07T09:25:01.539Z,99821.34
2022-08-07T09:28:00.807Z,99816.19
2022-08-07T09:30:54.367Z,99808.81
2022-08-07T09:34:00.944Z,99802.59
2022-08-07T09:36:42.996Z,99804.22
2022-08-07T09:39:55.124Z,99802.41
2022-08-07T09:42:51.476Z,99792.00
2022-08-07T09:47:24.305Z,99783.44
2022-08-07T09:48:55.960Z,99792.78
2022-08-07T09:52:10.906Z,99792.34
2022-08-07T09:54:48.073Z,99784.72
2022-08-07T09:57:51.349Z,99781.69
2022-08-07T10:00:31.852Z,99766.28
2022-08-07T10:04:06.152Z,99771.91
2022-08-07T10:06:59.788Z,99764.91
2022-08-07T10:10:03.870Z,99763.66
2022-08-07T10:13:15.944Z,99760.19
2022-08-07T10:16:23.211Z,99752.06
2022-08-07T10:19:45.499Z,99750.25
2022-08-07T10:22:39.494Z,99749.44
2022-08-07T10:25:42.970Z,99741.16
2022-08-07T10:28:32.179Z,99730.06
2022-08-07T10:31:39.458Z,99722.66
2022-08-07T10:34:37.796Z,99723.38
2022-08-07T10:38:00.316Z,99723.91
2022-08-07T10:40:35.916Z,99716.00
2022-08-07T10:43:19.323Z,99719.41
2022-08-07T10:46:02.865Z,99711.38
2022-08-07T10:48:48.661Z,99708.09
2022-08-07T10:51:57.525Z,99708.16
2022-08-07T10:54:38.397Z,99715.16
2022-08-07T10:57:34.747Z,99704.84
2022-08-07T11:00:39.330Z,99699.22
2022-08-07T11:03:12.882Z,99696.34
2022-08-07T11:05:54.813Z,99701.00
2022-08-07T11:08:41.235Z,99698.22
2022-08-07T11:11:20.278Z,99697.66
2022-08-07T11:14:45.668Z,99682.28
2022-08-07T11:16:59.413Z,99679.75
2022-08-07T11:19:52.191Z,99670.53
2022-08-07T11:22:44.124Z,99670.00
2022-08-07T11:25:26.926Z,99665.28
2022-08-07T11:28:15.566Z,99665.25
2022-08-07T11:30:58.519Z,99655.09
2022-08-07T11:33:58.399Z,99652.03
2022-08-07T11:36:56.453Z,99656.81
2022-08-07T11:39:59.843Z,99657.78
2022-08-07T11:42:48.806Z,99654.06
2022-08-07T11:45:35.303Z,99644.09
2022-08-07T11:49:04.139Z,99636.34
2022-08-07T11:52:00.356Z,99636.47
2022-08-07T11:55:01.263Z,99643.31
2022-08-07T11:57:57.717Z,99630.81
2022-08-07T12:01:00.145Z,99632.16
2022-08-07T12:04:03.965Z,99629.78
2022-08-07T12:07:00.342Z,99630.34
2022-08-07T12:09:38.016Z,99620.13
2022-08-07T12:12:12.191Z,99617.56
2022-08-07T12:14:55.701Z,99617.31
2022-08-07T12:17:41.362Z,99622.09
2022-08-07T12:20:36.643Z,99602.53
2022-08-07T12:24:07.483Z,99625.88
2022-08-07T12:26:49.093Z,99606.75
2022-08-07T12:29:38.951Z,99608.16
2022-08-07T12:32:24.579Z,99595.25
2022-08-07T12:34:56.060Z,99601.41
2022-08-07T12:38:09.623Z,99599.47
2022-08-07T12:40:46.818Z,99602.09
2022-08-07T12:44:01.890Z,99591.06
2022-08-07T12:46:32.819Z,99591.06
2022-08-07T12:49:25.462Z,99595.47
2022-08-07T12:52:19.253Z,99605.44
2022-08-07T12:55:05.293Z,99584.59
2022-08-07T12:58:01.464Z,99591.00
2022-08-07T13:00:50.907Z,99579.66
2022-08-07T13:04:05.034Z,99575.94
2022-08-07T13:07:02.248Z,99577.81
2022-08-07T13:10:20.904Z,99576.91
2022-08-07T13:13:47.595Z,99569.19
2022-08-07T13:16:18.714Z,99572.75
2022-08-07T13:19:02.931Z,99563.53
2022-08-07T13:21:57.294Z,99569.03
2022-08-07T13:24:43.840Z,99565.63
2022-08-07T13:28:05.767Z,99555.09
2022-08-07T13:30:40.981Z,99547.97
2022-08-07T13:34:30.240Z,99553.00
2022-08-07T13:36:27.465Z,99545.53
2022-08-07T13:39:12.782Z,99544.47
2022-08-07T13:41:54.684Z,99534.72
2022-08-07T13:44:34.608Z,99531.22
2022-08-07T13:47:21.720Z,99522.34
2022-08-07T13:50:32.720Z,99526.53
2022-08-07T13:52:51.764Z,99525.97
2022-08-07T13:55:26.675Z,99520.34
2022-08-07T13:58:31.783Z,99525.19
2022-08-07T14:01:11.148Z,99512.81
2022-08-07T14:04:07.419Z,99506.25
2022-08-07T14:06:43.855Z,99500.19
2022-08-07T14:10:02.333Z,99504.16
2022-08-07T14:12:30.841Z,99501.59
2022-08-07T14:15:08.947Z,99504.97
2022-08-07T14:18:24.284Z,99506.81
2022-08-07T14:20:49.214Z,99502.06
2022-08-07T14:23:59.551Z,99501.59
2022-08-07T14:26:30.395Z,99501.94
2022-08-07T14:30:07.940Z,99497.88
2022-08-07T14:32:12.277Z,99492.78
2022-08-07T14:34:47.257Z,99488.19
2022-08-07T14:37:23.705Z,99486.63
2022-08-07T14:40:16.664Z,99487.28
2022-08-07T14:46:01.855Z,99492.91
2022-08-07T14:48:37.163Z,99485.28
2022-08-07T14:54:31.074Z,99487.00
2022-08-07T14:56:59.445Z,99485.97
2022-08-07T15:00:05.154Z,99484.22
2022-08-07T15:05:25.821Z,99479.84
2022-08-07T15:07:58.492Z,99475.34
2022-08-07T15:10:30.614Z,99478.09
2022-08-07T15:16:02.875Z,99481.63
2022-08-07T15:21:58.944Z,99483.56
2022-08-07T15:25:15.069Z,99479.56
2022-08-07T15:27:29.082Z,99486.34
2022-08-07T15:30:16.714Z,99481.22
2022-08-07T15:33:01.648Z,99473.94
2022-08-07T15:36:00.414Z,99472.13
2022-08-07T15:38:51.866Z,99471.19
2022-08-07T15:44:20.778Z,99474.13
2022-08-07T15:47:03.606Z,99466.09
2022-08-07T15:50:05.449Z,99466.66
2022-08-07T15:52:34.323Z,99463.34
2022-08-07T15:55:12.416Z,99460.59
2022-08-07T15:57:49.073Z,99467.72
2022-08-07T16:00:31.213Z,99463.19
2022-08-07T16:03:20.503Z,99457.22
2022-08-07T16:05:53.841Z,99454.16
2022-08-07T16:08:37.898Z,99460.13
2022-08-07T16:11:26.902Z,99455.06
2022-08-07T16:14:17.139Z,99466.88
2022-08-07T16:17:16.263Z,99457.56
2022-08-07T16:20:34.630Z,99468.16
2022-08-07T16:23:55.119Z,99463.16
2022-08-07T16:26:59.385Z,99462.91
2022-08-07T16:30:31.459Z,99462.28
2022-08-07T16:34:02.931Z,99461.25
2022-08-07T16:36:31.447Z,99463.41
2022-08-07T16:39:33.655Z,99461.31
2022-08-07T16:42:36.506Z,99450.97
2022-08-07T16:46:40.692Z,99459.75
2022-08-07T16:50:27.752Z,99463.00
2022-08-07T16:52:52.348Z,99458.88
2022-08-07T16:55:47.198Z,99455.03
2022-08-07T16:59:02.437Z,99460.09
2022-08-07T17:01:41.196Z,99453.78
2022-08-07T17:04:25.871Z,99456.19
2022-08-07T17:07:10.004Z,99450.94
2022-08-07T17:10:05.295Z,99452.88
2022-08-07T17:12:53.214Z,99455.16
2022-08-07T17:15:44.437Z,99450.97
2022-08-07T17:18:33.292Z,99451.75
2022-08-07T17:21:18.896Z,99450.97
2022-08-07T17:24:05.442Z,99458.72
2022-08-07T17:26:53.298Z,99453.41
2022-08-07T17:30:14.722Z,99453.94
2022-08-07T17:32:57.516Z,99456.38
2022-08-07T17:35:54.669Z,99456.88
2022-08-07T17:38:35.198Z,99455.28
2022-08-07T17:42:01.788Z,99464.66
2022-08-07T17:44:41.398Z,99459.16
2022-08-07T17:47:38.165Z,99455.09
2022-08-07T17:50:42.293Z,99461.22
2022-08-07T17:54:00.486Z,99455.28
2022-08-07T17:56:42.136Z,99462.69
2022-08-07T17:59:35.800Z,99464.59
2022-08-07T18:02:16.668Z,99462.66
2022-08-07T18:05:20.922Z,99465.19
2022-08-07T18:08:16.363Z,99463.84
2022-08-07T18:12:18.164Z,99462.56
2022-08-07T18:14:02.527Z,99464.72
2022-08-07T18:16:36.002Z,99467.13
2022-08-07T18:21:11.032Z,99460.81
2022-08-07T18:22:40.362Z,99470.28
2022-08-07T18:25:40.410Z,99467.34
2022-08-07T18:28:35.199Z,99467.28
2022-08-07T18:31:18.774Z,99468.38
2022-08-07T18:34:35.851Z,99479.25
2022-08-07T18:38:59.368Z,99484.00
2022-08-07T18:40:42.278Z,99492.53
2022-08-07T18:43:48.907Z,99496.00
2022-08-07T18:46:33.440Z,99499.66
2022-08-07T18:50:31.693Z,99498.56
2022-08-07T18:52:53.115Z,99500.19
2022-08-07T18:55:42.021Z,99502.34
2022-08-07T18:59:04.851Z,99509.19
2022-08-07T19:02:31.968Z,99517.63
2022-08-07T19:04:57.436Z,99518.84
2022-08-07T19:07:51.888Z,99523.25
2022-08-07T19:10:51.618Z,99530.50
2022-08-07T19:13:37.218Z,99522.16
2022-08-07T19:17:01.245Z,99536.84
2022-08-07T19:19:33.826Z,99531.03
2022-08-07T19:22:16.312Z,99541.19
2022-08-07T19:24:48.643Z,99546.41
2022-08-07T19:28:58.267Z,99537.88
2022-08-07T19:31:00.549Z,99550.09
2022-08-07T19:33:15.118Z,99548.00
2022-08-07T19:35:53.458Z,99552.44
2022-08-07T19:38:27.999Z,99551.41
2022-08-07T19:41:01.842Z,99552.06
2022-08-07T19:43:49.290Z,99550.56
2022-08-07T19:46:30.636Z,99556.13
2022-08-07T19:49:07.211Z,99554.63
2022-08-07T19:51:52.611Z,99561.53
2022-08-07T19:54:35.001Z,99561.84
2022-08-07T19:58:00.142Z,99559.69
2022-08-07T20:00:28.201Z,99554.91
2022-08-07T20:03:05.048Z,99559.19
2022-08-07T20:06:02.178Z,99560.47
2022-08-07T20:08:35.015Z,99560.84
2022-08-07T20:11:10.734Z,99555.72
2022-08-07T20:13:48.445Z,99559.06
2022-08-07T20:16:35.231Z,99565.88
2022-08-07T20:19:10.358Z,99564.56
2022-08-07T20:21:47.755Z,99570.06
2022-08-07T20:24:23.496Z,99571.22
2022-08-07T20:26:56.205Z,99579.66
2022-08-07T20:29:49.574Z,99577.25
2022-08-07T20:32:25.792Z,99572.94
2022-08-07T20:35:01.382Z,99577.34
2022-08-07T20:37:55.616Z,99578.47
2022-08-07T20:40:34.310Z,99576.28
2022-08-07T20:43:09.892Z,99576.84
2022-08-07T20:46:28.340Z,99583.91
2022-08-07T20:49:55.115Z,99585.88
2022-08-07T20:51:40.565Z,99589.16
2022-08-07T20:54:29.999Z,99584.00
2022-08-07T20:57:08.345Z,99588.34
2022-08-07T21:00:06.736Z,99586.22
2022-08-07T21:02:57.534Z,99595.47
2022-08-07T21:05:51.104Z,99594.66
2022-08-07T21:08:36.786Z,99587.34
2022-08-07T21:11:14.390Z,99590.59
2022-08-07T21:14:31.731Z,99597.38
2022-08-07T21:18:02.032Z,99595.47
2022-08-07T21:20:05.263Z,99596.56
2022-08-07T21:22:45.102Z,99598.19
2022-08-07T21:25:38.889Z,99601.44
2022-08-07T21:28:16.699Z,99603.06
2022-08-07T21:30:58.055Z,99603.06
2022-08-07T21:33:41.053Z,99602.22
2022-08-07T21:36:31.068Z,99608.47
2022-08-07T21:39:47.459Z,99604.94
2022-08-07T21:42:42.651Z,99605.19
2022-08-07T21:46:07.693Z,99616.31
2022-08-07T21:48:28.301Z,99609.00
2022-08-07T21:51:20.433Z,99611.66
2022-08-07T21:54:09.393Z,99619.22
2022-08-07T21:56:53.747Z,99612.19
2022-08-07T22:00:05.186Z,99623.03
2022-08-07T22:02:45.721Z,99626.75
2022-08-07T22:05:44.658Z,99619.16
2022-08-07T22:08:13.556Z,99621.31
2022-08-07T22:10:49.745Z,99621.00
2022-08-07T22:13:24.359Z,99623.47
2022-08-07T22:16:43.355Z,99628.31
2022-08-07T22:19:16.145Z,99624.47
2022-08-07T22:22:04.748Z,99623.88
2022-08-07T22:25:07.545Z,99623.34
2022-08-07T22:28:08.054Z,99626.56
2022-08-07T22:30:53.503Z,99618.94
2022-08-07T22:33:53.073Z,99621.44
2022-08-07T22:36:38.425Z,99625.09
2022-08-07T22:39:23.468Z,99630.75
2022-08-07T22:42:19.043Z,99622.69
2022-08-07T22:45:03.486Z,99619.69
2022-08-07T22:48:31.502Z,99627.03
2022-08-07T22:51:44.583Z,99621.03
2022-08-07T22:54:52.268Z,99617.94
2022-08-07T22:58:05.812Z,99630.63
2022-08-07T23:00:47.212Z,99623.69
2022-08-07T23:03:58.802Z,99627.34
2022-08-07T23:07:40.470Z,99626.41
2022-08-07T23:10:37.405Z,99625.81
2022-08-07T23:14:15.297Z,99617.50
2022-08-07T23:17:15.617Z,99623.81
2022-08-07T23:20:40.245Z,99619.66
2022-08-07T23:24:16.971Z,99627.81
2022-08-07T23:27:17.866Z,99626.91
2022-08-07T23:30:38.008Z,99626.69
2022-08-07T23:34:34.748Z,99629.06
2022-08-07T23:36:43.105Z,99631.16
2022-08-07T23:39:22.397Z,99624.09
2022-08-07T23:42:15.668Z,99635.06
2022-08-07T23:45:33.157Z,99631.00
2022-08-07T23:48:43.398Z,99632.69
2022-08-07T23:52:58.322Z,99635.38
2022-08-07T23:54:36.005Z,99627.97
2022-08-07T23:57:18.617Z,99626.28
